Time;durP1;ratioP1;P1;durP2;ratioP2;P2;SDS_P1;SDS_P2;PMS_P1;PMS_P2;Temp;Humidity;BMP_temperature;BMP_pressure;BME280_temperature;BME280_humidity;BME280_pressure;Samples;Min_cycle;Max_cycle;Signal;HPM_P1;HPM_P2
2024/01/10 00:01:08;;;;;;;0.30;0.30;;;-0.90;99.90;;;;;;4966959;28;20054;-67
2024/01/10 00:03:34;;;;;;;0.10;0.10;;;-0.90;99.90;;;;;;4962927;28;20049;-67
2024/01/10 00:05:59;;;;;;;0.20;0.20;;;-1.00;99.90;;;;;;4964342;28;20498;-67
2024/01/10 00:08:25;;;;;;;1.23;1.13;;;-1.00;99.90;;;;;;4965495;28;20045;-68
2024/01/10 00:10:52;;;;;;;0.10;0.10;;;-1.00;99.90;;;;;;4969237;28;20069;-67
2024/01/10 00:13:17;;;;;;;0.20;0.20;;;-1.10;99.90;;;;;;4969106;28;20098;-68
2024/01/10 00:15:43;;;;;;;4.38;1.40;;;-1.00;99.90;;;;;;4967096;28;20039;-67
2024/01/10 00:18:09;;;;;;;4.38;1.15;;;-1.10;99.90;;;;;;4963760;28;20110;-68
2024/01/10 00:20:34;;;;;;;0.73;0.73;;;-1.10;99.90;;;;;;4970433;28;20073;-67
2024/01/10 00:23:00;;;;;;;0.30;0.30;;;-1.10;99.90;;;;;;4967749;28;20513;-67
2024/01/10 00:25:25;;;;;;;0.20;0.20;;;-1.10;99.90;;;;;;4960641;28;20505;-67
2024/01/10 00:27:51;;;;;;;0.13;0.13;;;-1.10;99.90;;;;;;4963034;28;20101;-67
2024/01/10 00:30:16;;;;;;;0.50;0.50;;;-1.10;99.90;;;;;;4969833;28;20383;-67
2024/01/10 00:32:42;;;;;;;0.50;0.50;;;-1.10;99.90;;;;;;4969433;28;20042;-67
2024/01/10 00:35:07;;;;;;;0.55;0.55;;;-1.10;99.90;;;;;;4958166;28;20047;-67
2024/01/10 00:37:33;;;;;;;0.43;0.43;;;-1.10;99.90;;;;;;4969975;28;20130;-67
2024/01/10 00:39:58;;;;;;;3.33;2.17;;;-1.10;99.90;;;;;;4967066;28;20487;-67
2024/01/10 00:42:24;;;;;;;0.20;0.20;;;-1.10;99.90;;;;;;4966433;28;20035;-67
2024/01/10 00:44:50;;;;;;;0.40;0.40;;;-1.10;99.90;;;;;;4967570;28;20055;-67
2024/01/10 00:47:15;;;;;;;2.10;0.95;;;-1.10;99.90;;;;;;4961639;28;20070;-67
2024/01/10 00:49:41;;;;;;;0.70;0.70;;;-1.20;99.90;;;;;;4961544;28;20530;-67
2024/01/10 00:52:06;;;;;;;0.40;0.40;;;-1.10;99.90;;;;;;4955746;28;20153;-67
2024/01/10 00:54:32;;;;;;;0.20;0.20;;;-1.20;99.90;;;;;;4963757;28;20043;-67
2024/01/10 00:56:57;;;;;;;0.30;0.30;;;-1.20;99.90;;;;;;4987229;28;20061;-67
2024/01/10 00:59:23;;;;;;;5.18;1.88;;;-1.20;99.90;;;;;;4964825;28;20082;-67
2024/01/10 01:01:48;;;;;;;0.20;0.20;;;-1.20;99.90;;;;;;4953962;28;20047;-67
2024/01/10 01:04:14;;;;;;;0.30;0.30;;;-1.20;99.90;;;;;;4987389;28;20045;-67
2024/01/10 01:06:39;;;;;;;0.40;0.40;;;-1.20;99.90;;;;;;4959841;28;20480;-67
2024/01/10 01:09:05;;;;;;;0.63;0.63;;;-1.20;99.90;;;;;;4962063;28;20081;-67
2024/01/10 01:11:30;;;;;;;0.20;0.20;;;-1.20;99.90;;;;;;4955504;28;20047;-67
2024/01/10 01:13:56;;;;;;;0.52;0.52;;;-1.20;99.90;;;;;;4961791;28;20580;-67
2024/01/10 01:16:21;;;;;;;0.68;0.68;;;-1.20;99.90;;;;;;4961298;28;20046;-67
2024/01/10 01:18:47;;;;;;;9.07;1.05;;;-1.20;99.90;;;;;;4995130;28;20039;-67
2024/01/10 01:21:13;;;;;;;1.25;1.15;;;-1.30;99.90;;;;;;4955552;28;20038;-67
2024/01/10 01:23:38;;;;;;;0.25;0.25;;;-1.30;99.90;;;;;;4963155;28;20046;-67
2024/01/10 01:26:04;;;;;;;0.30;0.30;;;-1.20;99.90;;;;;;4965036;28;20051;-67
2024/01/10 01:28:30;;;;;;;0.90;0.90;;;-1.30;99.90;;;;;;4962962;28;20042;-67
2024/01/10 01:30:55;;;;;;;0.35;0.35;;;-1.30;99.90;;;;;;4962599;28;20047;-67
2024/01/10 01:33:21;;;;;;;0.10;0.10;;;-1.20;99.90;;;;;;4957241;28;20058;-67
2024/01/10 01:35:46;;;;;;;0.22;0.22;;;-1.30;99.90;;;;;;4966624;28;20047;-66
2024/01/10 01:38:12;;;;;;;0.28;0.28;;;-1.20;99.90;;;;;;4976431;28;20054;-67
2024/01/10 01:40:37;;;;;;;0.22;0.22;;;-1.20;99.90;;;;;;4967943;28;20479;-67
2024/01/10 01:43:19;;;;;;;2.30;0.70;;;-1.20;99.90;;;;;;4969586;28;20400;-67
2024/01/10 01:45:45;;;;;;;0.28;0.28;;;-1.20;99.90;;;;;;4968323;28;20050;-66
2024/01/10 01:48:11;;;;;;;0.35;0.35;;;-1.20;99.90;;;;;;5001611;28;20047;-66
2024/01/10 01:50:37;;;;;;;1.52;1.42;;;-1.30;99.90;;;;;;4961519;28;20054;-67
2024/01/10 01:53:03;;;;;;;0.25;0.25;;;-1.20;99.90;;;;;;4971049;28;20511;-67
2024/01/10 01:55:29;;;;;;;0.20;0.20;;;-1.20;99.90;;;;;;4967308;28;20071;-67
2024/01/10 01:57:55;;;;;;;0.30;0.30;;;-1.20;99.90;;;;;;4967006;28;20070;-67
2024/01/10 02:00:21;;;;;;;0.85;0.85;;;-1.30;99.90;;;;;;4959864;28;20047;-67
2024/01/10 02:02:48;;;;;;;1.17;0.32;;;-1.20;99.90;;;;;;4971102;28;20065;-67
2024/01/10 02:05:15;;;;;;;0.28;0.28;;;-1.30;99.90;;;;;;4958792;28;20118;-67
2024/01/10 02:07:41;;;;;;;0.30;0.30;;;-1.30;99.90;;;;;;4968424;28;20576;-67
2024/01/10 02:10:07;;;;;;;0.90;0.90;;;-1.30;99.90;;;;;;4964178;28;20043;-67
2024/01/10 02:12:33;;;;;;;0.70;0.70;;;-1.30;99.90;;;;;;4960331;28;20047;-67
2024/01/10 02:14:59;;;;;;;2.60;2.40;;;-1.30;99.90;;;;;;4961014;28;20050;-67
2024/01/10 02:17:25;;;;;;;0.88;0.85;;;-1.30;99.90;;;;;;4961168;28;20535;-67
2024/01/10 02:20:08;;;;;;;0.20;0.20;;;-1.30;99.90;;;;;;4969523;28;20038;-67
2024/01/10 02:22:33;;;;;;;0.20;0.20;;;-1.30;99.90;;;;;;4961746;28;20070;-67
2024/01/10 02:24:59;;;;;;;0.20;0.20;;;-1.40;99.90;;;;;;4971123;28;20043;-67
2024/01/10 02:27:25;;;;;;;0.30;0.30;;;-1.40;99.90;;;;;;4972644;28;20043;-66
2024/01/10 02:29:52;;;;;;;1.85;1.75;;;-1.30;99.90;;;;;;4964236;28;20043;-66
2024/01/10 02:32:17;;;;;;;1.30;1.20;;;-1.40;99.90;;;;;;4969480;28;20043;-67
2024/01/10 02:34:43;;;;;;;1.73;1.63;;;-1.30;99.90;;;;;;4969306;28;20098;-67
2024/01/10 02:37:08;;;;;;;0.20;0.20;;;-1.30;99.90;;;;;;4972671;28;20038;-67
2024/01/10 02:39:34;;;;;;;1.27;1.02;;;-1.30;99.90;;;;;;4964098;28;20066;-67
2024/01/10 02:41:59;;;;;;;1.17;1.05;;;-1.30;99.90;;;;;;4966949;28;20094;-67
2024/01/10 02:44:25;;;;;;;0.40;0.40;;;-1.30;99.90;;;;;;4970503;28;20043;-67
2024/01/10 02:46:50;;;;;;;0.20;0.20;;;-1.30;99.90;;;;;;4961773;28;20051;-67
2024/01/10 02:49:18;;;;;;;3.38;1.55;;;-1.30;99.90;;;;;;4964117;28;20472;-67
2024/01/10 02:51:44;;;;;;;0.20;0.20;;;-1.20;99.90;;;;;;4971838;28;20134;-66
2024/01/10 02:54:09;;;;;;;4.60;1.45;;;-1.30;99.90;;;;;;4971534;28;20138;-67
2024/01/10 02:56:35;;;;;;;1.65;0.88;;;-1.30;99.90;;;;;;4962327;28;20078;-67
2024/01/10 02:59:00;;;;;;;0.95;0.95;;;-1.30;99.90;;;;;;4967377;28;20046;-67
2024/01/10 03:01:26;;;;;;;0.20;0.20;;;-1.30;99.90;;;;;;4962703;28;20053;-67
2024/01/10 03:03:51;;;;;;;0.77;0.77;;;-1.30;99.90;;;;;;4968466;28;20137;-67
2024/01/10 03:06:17;;;;;;;0.20;0.20;;;-1.30;99.90;;;;;;4971654;28;20038;-67
2024/01/10 03:08:42;;;;;;;0.65;0.65;;;-1.30;99.90;;;;;;4959695;28;20485;-67
2024/01/10 03:11:08;;;;;;;0.57;0.57;;;-1.30;99.90;;;;;;4963829;28;20078;-66
2024/01/10 03:13:34;;;;;;;0.20;0.20;;;-1.40;99.90;;;;;;4971549;28;20050;-66
2024/01/10 03:15:59;;;;;;;0.22;0.22;;;-1.30;99.90;;;;;;4967958;28;20078;-66
2024/01/10 03:18:25;;;;;;;8.98;1.30;;;-1.40;99.90;;;;;;4961075;28;20546;-67
2024/01/10 03:20:50;;;;;;;1.00;1.00;;;-1.40;99.90;;;;;;4989701;28;20054;-66
2024/01/10 03:23:16;;;;;;;1.20;1.02;;;-1.40;99.90;;;;;;4960076;28;20043;-67
2024/01/10 03:25:41;;;;;;;0.73;0.73;;;-1.40;99.90;;;;;;4965593;28;20039;-67
2024/01/10 03:28:07;;;;;;;0.90;0.90;;;-1.30;99.90;;;;;;4970662;28;20501;-67
2024/01/10 03:30:32;;;;;;;0.73;0.73;;;-1.40;99.90;;;;;;4963419;28;20043;-66
2024/01/10 03:32:58;;;;;;;2.28;1.85;;;-1.40;99.90;;;;;;4962450;28;20061;-66
2024/01/10 03:35:23;;;;;;;0.63;0.63;;;-1.40;99.90;;;;;;4961271;28;20051;-67
2024/01/10 03:37:49;;;;;;;0.20;0.20;;;-1.40;99.90;;;;;;4973974;28;20034;-67
2024/01/10 03:40:15;;;;;;;0.73;0.73;;;-1.40;99.90;;;;;;4979486;28;20118;-67
2024/01/10 03:42:40;;;;;;;0.45;0.45;;;-1.50;99.90;;;;;;4968180;28;20039;-67
2024/01/10 03:45:06;;;;;;;0.57;0.57;;;-1.40;99.90;;;;;;4959383;28;20417;-66
2024/01/10 03:47:31;;;;;;;0.20;0.20;;;-1.40;99.90;;;;;;4967907;28;20039;-66
2024/01/10 03:49:57;;;;;;;1.25;0.95;;;-1.40;99.90;;;;;;4971717;28;20042;-66
2024/01/10 03:52:22;;;;;;;3.50;2.65;;;-1.40;99.90;;;;;;4963821;28;20051;-66
2024/01/10 03:54:48;;;;;;;3.17;2.13;;;-1.50;99.90;;;;;;4960554;28;20077;-66
2024/01/10 03:57:13;;;;;;;0.65;0.65;;;-1.50;99.90;;;;;;4969621;28;20045;-67
2024/01/10 03:59:39;;;;;;;1.35;1.27;;;-1.50;99.90;;;;;;4967077;28;20049;-66
2024/01/10 04:02:05;;;;;;;1.58;1.13;;;-1.50;99.90;;;;;;4967618;28;20050;-66
2024/01/10 04:04:30;;;;;;;0.68;0.68;;;-1.50;99.90;;;;;;4969748;28;20043;-66
2024/01/10 04:06:56;;;;;;;1.48;1.38;;;-1.50;99.90;;;;;;4967458;28;20095;-66
2024/01/10 04:09:21;;;;;;;0.30;0.30;;;-1.50;99.90;;;;;;4967264;28;20050;-66
2024/01/10 04:11:47;;;;;;;2.38;1.40;;;-1.50;99.90;;;;;;4969579;28;20063;-66
2024/01/10 04:14:13;;;;;;;0.20;0.20;;;-1.60;99.90;;;;;;4963019;28;20049;-66
2024/01/10 04:16:38;;;;;;;0.40;0.38;;;-1.50;99.90;;;;;;4959923;28;20120;-66
2024/01/10 04:19:04;;;;;;;0.47;0.47;;;-1.60;99.90;;;;;;4964539;28;20042;-67
2024/01/10 04:21:29;;;;;;;1.23;1.17;;;-1.60;99.90;;;;;;4965283;28;20069;-66
2024/01/10 04:23:55;;;;;;;0.30;0.30;;;-1.60;99.90;;;;;;4964953;28;20046;-66
2024/01/10 04:26:21;;;;;;;0.50;0.50;;;-1.60;99.90;;;;;;4960728;28;20070;-66
2024/01/10 04:28:47;;;;;;;1.17;1.10;;;-1.60;99.90;;;;;;4969557;28;20031;-66
2024/01/10 04:31:12;;;;;;;1.75;1.65;;;-1.70;99.90;;;;;;4969419;28;20042;-66
2024/01/10 04:33:38;;;;;;;0.85;0.85;;;-1.60;99.90;;;;;;4963213;28;20538;-67
2024/01/10 04:36:03;;;;;;;0.70;0.70;;;-1.60;99.90;;;;;;4997547;28;20604;-66
2024/01/10 04:38:29;;;;;;;2.25;0.95;;;-1.60;99.90;;;;;;4974174;28;20049;-67
2024/01/10 04:40:55;;;;;;;0.40;0.40;;;-1.60;99.90;;;;;;4960485;28;20058;-66
2024/01/10 04:43:20;;;;;;;0.38;0.38;;;-1.60;99.90;;;;;;4968627;28;20498;-66
2024/01/10 04:45:46;;;;;;;1.13;1.13;;;-1.50;99.90;;;;;;4967479;28;20108;-66
2024/01/10 04:48:12;;;;;;;0.38;0.38;;;-1.50;99.90;;;;;;4970117;28;20043;-66
2024/01/10 04:50:37;;;;;;;0.70;0.70;;;-1.60;99.90;;;;;;4960943;28;20050;-66
2024/01/10 04:53:03;;;;;;;1.05;1.05;;;-1.60;99.90;;;;;;4966723;28;20070;-66
2024/01/10 04:55:28;;;;;;;0.30;0.30;;;-1.50;99.90;;;;;;4968019;28;20058;-66
2024/01/10 04:57:54;;;;;;;3.95;1.85;;;-1.60;99.90;;;;;;4962597;28;20066;-67
2024/01/10 05:00:20;;;;;;;0.20;0.20;;;-1.60;99.90;;;;;;4962054;28;20173;-66
2024/01/10 05:02:45;;;;;;;0.20;0.20;;;-1.60;99.90;;;;;;4965431;28;20422;-66
2024/01/10 05:05:11;;;;;;;0.45;0.45;;;-1.60;99.90;;;;;;4964154;28;20047;-66
2024/01/10 05:07:36;;;;;;;0.20;0.20;;;-1.50;99.90;;;;;;4968551;28;20050;-66
2024/01/10 05:10:02;;;;;;;0.10;0.10;;;-1.50;99.90;;;;;;4969542;28;20109;-66
2024/01/10 05:12:28;;;;;;;0.22;0.22;;;-1.50;99.90;;;;;;4961016;28;20044;-66
2024/01/10 05:14:53;;;;;;;1.00;1.00;;;-1.50;99.90;;;;;;4962795;28;20085;-66
2024/01/10 05:17:19;;;;;;;0.25;0.25;;;-1.50;99.90;;;;;;4959723;28;20047;-66
2024/01/10 05:19:45;;;;;;;0.30;0.30;;;-1.40;99.90;;;;;;4997232;28;20050;-66
2024/01/10 05:22:11;;;;;;;0.50;0.50;;;-1.40;99.90;;;;;;4968547;28;20431;-67
2024/01/10 05:24:37;;;;;;;1.08;1.08;;;-1.50;99.90;;;;;;4962824;28;20046;-67
2024/01/10 05:27:02;;;;;;;0.75;0.75;;;-1.40;99.90;;;;;;4962908;28;20105;-66
2024/01/10 05:29:28;;;;;;;0.20;0.20;;;-1.40;99.90;;;;;;4969463;28;20550;-66
2024/01/10 05:31:54;;;;;;;0.30;0.30;;;-1.50;99.90;;;;;;4997081;28;20043;-66
2024/01/10 05:34:19;;;;;;;0.90;0.90;;;-1.50;99.90;;;;;;4963941;28;20051;-66
2024/01/10 05:36:45;;;;;;;0.40;0.40;;;-1.50;99.90;;;;;;4999414;28;20054;-66
2024/01/10 05:39:10;;;;;;;0.82;0.82;;;-1.50;99.90;;;;;;4970884;28;20054;-66
2024/01/10 05:41:36;;;;;;;0.20;0.20;;;-1.50;99.90;;;;;;4958807;28;20418;-66
2024/01/10 05:44:04;;;;;;;0.10;0.10;;;-1.50;99.90;;;;;;4958070;28;20050;-66
2024/01/10 05:46:30;;;;;;;0.20;0.20;;;-1.60;99.90;;;;;;4959383;28;20055;-66
2024/01/10 05:48:56;;;;;;;0.68;0.68;;;-1.50;99.90;;;;;;4960799;28;20055;-66
2024/01/10 05:51:22;;;;;;;0.30;0.30;;;-1.50;99.90;;;;;;4995234;28;20055;-66
2024/01/10 05:53:47;;;;;;;0.63;0.63;;;-1.50;99.90;;;;;;4956404;28;20035;-66
2024/01/10 05:56:13;;;;;;;0.20;0.20;;;-1.50;99.90;;;;;;4998221;28;20122;-66
2024/01/10 05:58:39;;;;;;;0.50;0.50;;;-1.50;99.90;;;;;;4958771;28;20122;-66
2024/01/10 06:01:09;;;;;;;0.20;0.20;;;-1.50;99.90;;;;;;4959012;28;20051;-66
2024/01/10 06:03:35;;;;;;;1.13;1.10;;;-1.60;99.90;;;;;;4956576;28;20053;-66
2024/01/10 06:06:01;;;;;;;0.32;0.32;;;-1.60;99.90;;;;;;4968939;28;20043;-66
2024/01/10 06:08:28;;;;;;;1.08;1.08;;;-1.50;99.90;;;;;;4958584;28;20559;-66
2024/01/10 06:10:54;;;;;;;0.40;0.40;;;-1.50;99.90;;;;;;4956527;28;20522;-66
2024/01/10 06:13:19;;;;;;;0.30;0.30;;;-1.60;99.90;;;;;;4966241;28;20071;-66
2024/01/10 06:15:45;;;;;;;0.20;0.20;;;-1.50;99.90;;;;;;4968942;28;20562;-66
2024/01/10 06:18:11;;;;;;;0.32;0.32;;;-1.60;99.90;;;;;;4969487;28;20034;-66
2024/01/10 06:20:39;;;;;;;0.22;0.22;;;-1.60;99.90;;;;;;4958544;28;20048;-66
2024/01/10 06:23:04;;;;;;;0.20;0.20;;;-1.60;99.90;;;;;;4965979;28;20057;-66
2024/01/10 06:25:30;;;;;;;1.38;1.30;;;-1.60;99.90;;;;;;4967202;28;20454;-68
2024/01/10 06:27:56;;;;;;;0.10;0.10;;;-1.60;99.90;;;;;;4958151;28;20047;-66
2024/01/10 06:30:21;;;;;;;0.73;0.73;;;-1.60;99.90;;;;;;4959197;28;20039;-66
2024/01/10 06:32:47;;;;;;;0.20;0.20;;;-1.60;99.90;;;;;;4996672;28;20051;-66
2024/01/10 06:35:13;;;;;;;0.20;0.20;;;-1.60;99.90;;;;;;4969697;28;20138;-66
2024/01/10 06:37:38;;;;;;;0.22;0.22;;;-1.60;99.90;;;;;;4964595;28;20043;-65
2024/01/10 06:40:05;;;;;;;0.20;0.20;;;-1.60;99.90;;;;;;4972170;28;20043;-66
2024/01/10 06:42:31;;;;;;;3.75;1.40;;;-1.60;99.90;;;;;;4968860;28;20082;-66
2024/01/10 06:44:56;;;;;;;0.73;0.73;;;-1.60;99.90;;;;;;4961642;28;20102;-66
2024/01/10 06:47:22;;;;;;;0.30;0.30;;;-1.60;99.90;;;;;;4967238;28;20051;-66
2024/01/10 06:49:48;;;;;;;0.30;0.30;;;-1.60;99.90;;;;;;4968057;28;20282;-66
2024/01/10 06:52:13;;;;;;;0.98;0.98;;;-1.60;99.90;;;;;;4957478;28;20495;-66
2024/01/10 06:54:39;;;;;;;0.55;0.55;;;-1.60;99.90;;;;;;4963575;28;20059;-66
2024/01/10 06:57:05;;;;;;;0.10;0.10;;;-1.60;99.90;;;;;;4967629;28;20472;-65
2024/01/10 06:59:30;;;;;;;1.08;0.80;;;-1.60;99.90;;;;;;4960434;28;20408;-65
2024/01/10 07:01:56;;;;;;;1.17;0.88;;;-1.60;99.90;;;;;;4969406;28;20162;-65
2024/01/10 07:04:23;;;;;;;0.47;0.47;;;-1.60;99.90;;;;;;4964506;28;20031;-65
2024/01/10 07:06:49;;;;;;;0.45;0.45;;;-1.70;99.90;;;;;;4963776;28;20054;-65
2024/01/10 07:09:19;;;;;;;1.75;1.65;;;-1.70;99.90;;;;;;4970188;28;20368;-65
2024/01/10 07:11:47;;;;;;;0.38;0.38;;;-1.60;99.90;;;;;;4967477;28;20050;-65
2024/01/10 07:14:13;;;;;;;0.22;0.22;;;-1.60;99.90;;;;;;4966786;28;20042;-65
2024/01/10 07:16:42;;;;;;;0.15;0.15;;;-1.60;99.90;;;;;;4971481;28;20050;-66
2024/01/10 07:19:09;;;;;;;0.35;0.35;;;-1.70;99.90;;;;;;4960486;28;20047;-65
2024/01/10 07:21:34;;;;;;;0.57;0.57;;;-1.70;99.90;;;;;;4963559;28;20047;-65
2024/01/10 07:24:00;;;;;;;0.85;0.85;;;-1.70;99.90;;;;;;4969333;28;20118;-65
2024/01/10 07:26:27;;;;;;;0.20;0.20;;;-1.60;99.90;;;;;;4966592;28;20046;-65
2024/01/10 07:28:53;;;;;;;0.63;0.63;;;-1.60;99.90;;;;;;4959207;28;20043;-65
2024/01/10 07:31:18;;;;;;;0.30;0.30;;;-1.60;99.90;;;;;;4970069;28;20042;-65
2024/01/10 07:33:44;;;;;;;1.05;1.05;;;-1.70;99.90;;;;;;4969435;28;20057;-65
2024/01/10 07:36:09;;;;;;;0.30;0.30;;;-1.70;99.90;;;;;;4967291;28;20137;-66
2024/01/10 07:38:35;;;;;;;1.75;1.65;;;-1.70;99.90;;;;;;4956040;28;20487;-65
2024/01/10 07:41:00;;;;;;;0.30;0.30;;;-1.70;99.90;;;;;;4970672;28;20042;-65
2024/01/10 07:43:27;;;;;;;0.40;0.40;;;-1.60;99.90;;;;;;4963040;28;20070;-65
2024/01/10 07:45:52;;;;;;;2.50;2.20;;;-1.60;99.90;;;;;;4962451;28;20138;-65
2024/01/10 07:48:20;;;;;;;0.57;0.57;;;-1.60;99.90;;;;;;4970188;28;20117;-65
2024/01/10 07:50:45;;;;;;;0.43;0.43;;;-1.60;99.90;;;;;;4968421;28;20161;-65
2024/01/10 07:53:11;;;;;;;0.52;0.52;;;-1.60;99.90;;;;;;4959457;28;20146;-66
2024/01/10 07:55:37;;;;;;;0.43;0.43;;;-1.60;99.90;;;;;;4967457;28;20041;-65
2024/01/10 07:58:05;;;;;;;0.90;0.90;;;-1.60;99.90;;;;;;4965684;28;20057;-65
2024/01/10 08:00:31;;;;;;;1.30;1.25;;;-1.60;99.90;;;;;;4966629;28;20039;-66
2024/01/10 08:02:58;;;;;;;0.20;0.20;;;-1.50;99.90;;;;;;4971837;28;20039;-65
2024/01/10 08:05:23;;;;;;;0.25;0.25;;;-1.60;99.90;;;;;;4967662;28;20051;-65
2024/01/10 08:07:49;;;;;;;0.40;0.40;;;-1.50;99.90;;;;;;4970195;28;20046;-65
2024/01/10 08:10:15;;;;;;;0.20;0.20;;;-1.50;99.90;;;;;;4970977;28;20168;-65
2024/01/10 08:12:44;;;;;;;4.57;2.70;;;-1.50;99.90;;;;;;4968560;28;20058;-65
2024/01/10 08:15:10;;;;;;;0.20;0.20;;;-1.50;99.90;;;;;;4958684;28;20039;-65
2024/01/10 08:17:37;;;;;;;1.70;1.58;;;-1.50;99.90;;;;;;5001801;28;20057;-65
2024/01/10 08:20:04;;;;;;;1.05;1.05;;;-1.50;99.90;;;;;;4970009;28;20043;-65
2024/01/10 08:22:30;;;;;;;0.22;0.22;;;-1.50;99.90;;;;;;4962739;28;20048;-65
2024/01/10 08:24:55;;;;;;;0.68;0.60;;;-1.50;99.90;;;;;;4961601;28;20039;-65
2024/01/10 08:27:21;;;;;;;0.30;0.30;;;-1.50;99.90;;;;;;4957005;28;20053;-65
2024/01/10 08:29:47;;;;;;;0.55;0.55;;;-1.50;99.90;;;;;;4970174;28;20498;-65
2024/01/10 08:32:12;;;;;;;0.65;0.65;;;-1.50;99.90;;;;;;4969026;28;20666;-65
2024/01/10 08:34:38;;;;;;;0.60;0.60;;;-1.40;99.90;;;;;;4962353;28;20073;-65
2024/01/10 08:37:04;;;;;;;0.20;0.20;;;-1.40;99.90;;;;;;4968595;28;20046;-65
2024/01/10 08:39:30;;;;;;;0.30;0.30;;;-1.40;99.90;;;;;;4967074;28;20035;-66
2024/01/10 08:41:56;;;;;;;2.05;1.83;;;-1.50;99.90;;;;;;4958390;28;20129;-65
2024/01/10 08:44:22;;;;;;;0.20;0.20;;;-1.40;99.90;;;;;;4968084;28;20046;-65
2024/01/10 08:46:50;;;;;;;0.20;0.20;;;-1.40;99.90;;;;;;4963313;28;20464;-65
2024/01/10 08:49:16;;;;;;;3.05;1.85;;;-1.40;99.90;;;;;;4962974;28;20050;-65
2024/01/10 08:51:43;;;;;;;1.45;1.42;;;-1.40;99.90;;;;;;4956978;28;20057;-65
2024/01/10 08:54:09;;;;;;;0.20;0.20;;;-1.40;99.90;;;;;;4962057;28;20491;-65
2024/01/10 08:56:34;;;;;;;1.40;0.73;;;-1.30;99.90;;;;;;4961972;28;20049;-65
2024/01/10 08:59:01;;;;;;;0.25;0.25;;;-1.30;99.90;;;;;;4959803;28;20046;-65
2024/01/10 09:01:26;;;;;;;0.30;0.30;;;-1.30;99.90;;;;;;4996172;28;20051;-65
2024/01/10 09:03:52;;;;;;;0.35;0.35;;;-1.30;99.90;;;;;;4961675;28;20399;-65
2024/01/10 09:06:17;;;;;;;0.20;0.20;;;-1.20;99.90;;;;;;4992108;28;20051;-65
2024/01/10 09:08:43;;;;;;;0.20;0.20;;;-1.20;99.90;;;;;;4963585;28;20050;-65
2024/01/10 09:11:09;;;;;;;0.20;0.20;;;-1.10;99.90;;;;;;4959628;28;20138;-65
2024/01/10 09:13:35;;;;;;;0.63;0.63;;;-1.10;99.90;;;;;;4957403;28;20411;-65
2024/01/10 09:16:00;;;;;;;0.30;0.30;;;-1.10;99.90;;;;;;4962915;28;20039;-65
2024/01/10 09:18:26;;;;;;;0.40;0.40;;;-1.10;99.90;;;;;;4984136;28;20066;-65
2024/01/10 09:20:51;;;;;;;0.63;0.63;;;-1.10;99.90;;;;;;4967685;28;20583;-65
2024/01/10 09:23:18;;;;;;;0.20;0.20;;;-1.00;99.90;;;;;;4963927;28;20045;-65
2024/01/10 09:25:44;;;;;;;0.20;0.20;;;-1.10;99.90;;;;;;4965534;28;20542;-65
2024/01/10 09:28:10;;;;;;;1.77;1.67;;;-1.00;99.90;;;;;;4959358;28;20046;-65
2024/01/10 09:30:35;;;;;;;1.27;0.60;;;-1.00;99.90;;;;;;4959788;28;20149;-66
2024/01/10 09:33:01;;;;;;;0.80;0.73;;;-1.00;99.90;;;;;;4956155;28;20051;-65
2024/01/10 09:35:27;;;;;;;0.17;0.17;;;-0.90;99.90;;;;;;4970095;28;20035;-66
2024/01/10 09:37:53;;;;;;;0.20;0.20;;;-0.90;99.90;;;;;;4973197;28;20035;-65
2024/01/10 09:40:21;;;;;;;1.35;1.02;;;-0.90;99.90;;;;;;4961227;28;20043;-65
2024/01/10 09:42:49;;;;;;;0.20;0.20;;;-0.90;99.90;;;;;;4967481;28;20130;-66
2024/01/10 09:45:17;;;;;;;0.10;0.10;;;-0.90;99.90;;;;;;4966289;28;20043;-66
2024/01/10 09:47:48;;;;;;;0.65;0.65;;;-0.80;99.90;;;;;;4957396;28;20063;-66
2024/01/10 09:50:14;;;;;;;0.68;0.68;;;-0.80;99.90;;;;;;4956979;28;20499;-66
2024/01/10 09:52:50;;;;;;;0.15;0.15;;;-0.70;99.90;;;;;;4961906;28;20055;-65
2024/01/10 09:55:17;;;;;;;0.52;0.52;;;-0.80;99.90;;;;;;4966036;28;20258;-66
2024/01/10 09:57:42;;;;;;;0.20;0.20;;;-0.80;99.90;;;;;;4968814;28;20042;-65
2024/01/10 10:00:15;;;;;;;0.10;0.10;;;-0.80;99.90;;;;;;5000511;28;20046;-66
2024/01/10 10:02:42;;;;;;;0.65;0.65;;;-0.70;99.90;;;;;;4965515;28;20053;-66
2024/01/10 10:05:08;;;;;;;0.20;0.20;;;-0.60;99.90;;;;;;4968767;28;20098;-65
2024/01/10 10:07:50;;;;;;;0.20;0.20;;;-0.60;99.90;;;;;;4971008;28;20042;-66
2024/01/10 10:10:17;;;;;;;0.65;0.65;;;-0.60;99.90;;;;;;4956758;28;20511;-65
2024/01/10 10:12:48;;;;;;;0.40;0.40;;;-0.60;99.90;;;;;;4999967;28;20051;-66
2024/01/10 10:15:15;;;;;;;0.20;0.20;;;-0.60;99.90;;;;;;4961749;28;20043;-64
2024/01/10 10:17:47;;;;;;;0.15;0.15;;;-0.50;99.90;;;;;;4966748;28;20043;-65
2024/01/10 10:20:25;;;;;;;0.15;0.15;;;-0.50;99.90;;;;;;4964366;28;20038;-66
2024/01/10 10:22:59;;;;;;;0.20;0.20;;;-0.40;99.90;;;;;;4964872;28;20592;-65
2024/01/10 10:25:28;;;;;;;0.75;0.75;;;-0.40;99.90;;;;;;4965538;28;20065;-66
2024/01/10 10:27:54;;;;;;;0.20;0.20;;;-0.30;99.90;;;;;;4967117;28;20127;-66
2024/01/10 10:30:19;;;;;;;0.20;0.20;;;-0.10;99.90;;;;;;4960307;28;20118;-66
2024/01/10 10:32:45;;;;;;;1.10;1.10;;;0.10;99.90;;;;;;4956868;28;20853;-66
2024/01/10 10:35:10;;;;;;;0.30;0.30;;;0.10;99.90;;;;;;4997601;28;20139;-66
2024/01/10 10:37:36;;;;;;;4.80;3.20;;;0.10;99.90;;;;;;4972258;28;20055;-66
2024/01/10 10:40:01;;;;;;;0.20;0.20;;;0.20;99.90;;;;;;4970495;28;20475;-66
2024/01/10 10:42:30;;;;;;;1.05;1.05;;;0.30;99.90;;;;;;4959412;28;20172;-66
2024/01/10 10:45:02;;;;;;;0.45;0.45;;;0.30;99.90;;;;;;4956111;28;20518;-66
2024/01/10 10:47:32;;;;;;;0.30;0.30;;;0.30;99.90;;;;;;4956011;28;20483;-66
2024/01/10 10:50:00;;;;;;;0.20;0.20;;;0.40;99.90;;;;;;4967692;28;20153;-66
2024/01/10 10:52:26;;;;;;;0.10;0.10;;;0.40;99.90;;;;;;4972128;28;20178;-66
2024/01/10 10:54:55;;;;;;;0.85;0.85;;;0.40;99.90;;;;;;4960232;28;20035;-66
2024/01/10 10:57:22;;;;;;;0.20;0.20;;;0.50;99.90;;;;;;4960894;28;20047;-66
2024/01/10 10:59:51;;;;;;;0.30;0.30;;;0.60;99.90;;;;;;4998150;28;20530;-66
2024/01/10 11:02:24;;;;;;;0.10;0.10;;;0.60;99.90;;;;;;4959992;28;20384;-66
2024/01/10 11:04:53;;;;;;;0.35;0.35;;;0.70;99.90;;;;;;4961268;28;20399;-66
2024/01/10 11:07:20;;;;;;;0.50;0.50;;;0.70;99.90;;;;;;4964356;28;20106;-66
2024/01/10 11:09:48;;;;;;;2.38;1.85;;;0.70;99.90;;;;;;4962785;28;20046;-66
2024/01/10 11:12:39;;;;;;;5.38;3.50;;;0.70;99.90;;;;;;4954902;28;20110;-66
2024/01/10 11:15:17;;;;;;;0.20;0.20;;;0.70;99.90;;;;;;4960944;28;20043;-66
2024/01/10 11:18:06;;;;;;;0.30;0.30;;;0.70;99.90;;;;;;4999574;28;20061;-66
2024/01/10 11:21:04;;;;;;;3.20;1.52;;;0.60;99.90;;;;;;4957435;28;20078;-67
2024/01/10 11:23:39;;;;;;;1.67;1.58;;;0.60;99.90;;;;;;4967675;28;20050;-66
2024/01/10 11:26:06;;;;;;;0.30;0.30;;;0.60;99.90;;;;;;4961080;28;20053;-66
2024/01/10 11:28:33;;;;;;;2.50;2.30;;;0.60;99.90;;;;;;4957602;28;20514;-67
2024/01/10 11:30:59;;;;;;;0.10;0.10;;;0.60;99.90;;;;;;4964095;28;20121;-67
2024/01/10 11:33:30;;;;;;;1.23;0.80;;;0.60;99.90;;;;;;4993962;28;20133;-67
2024/01/10 11:36:18;;;;;;;0.50;0.50;;;0.70;99.90;;;;;;4965873;28;20055;-67
2024/01/10 11:38:54;;;;;;;0.30;0.30;;;0.70;99.90;;;;;;4966201;28;20127;-67
2024/01/10 11:41:35;;;;;;;3.20;0.88;;;0.70;99.90;;;;;;4964327;28;20043;-67
2024/01/10 11:44:10;;;;;;;0.20;0.20;;;0.80;99.90;;;;;;4969115;28;20055;-67
2024/01/10 11:46:43;;;;;;;0.38;0.38;;;0.90;99.90;;;;;;4961854;28;20054;-67
2024/01/10 11:49:09;;;;;;;2.00;1.90;;;1.00;99.90;;;;;;4968035;28;20051;-67
2024/01/10 11:51:36;;;;;;;0.35;0.35;;;1.20;99.90;;;;;;4969025;28;20398;-67
2024/01/10 11:54:02;;;;;;;0.75;0.75;;;1.30;99.90;;;;;;4953998;28;20089;-67
2024/01/10 11:56:41;;;;;;;0.38;0.38;;;1.50;99.90;;;;;;4964172;28;20074;-68
2024/01/10 11:59:11;;;;;;;0.20;0.20;;;1.60;99.90;;;;;;4951387;28;20487;-68
2024/01/10 12:01:41;;;;;;;0.20;0.20;;;1.70;99.90;;;;;;5000394;28;20065;-67
2024/01/10 12:04:07;;;;;;;0.30;0.30;;;1.80;99.90;;;;;;4983715;28;20065;-67
2024/01/10 12:06:37;;;;;;;0.80;0.80;;;1.90;99.90;;;;;;4961151;28;20085;-68
2024/01/10 12:09:11;;;;;;;0.65;0.65;;;2.10;99.90;;;;;;4967167;28;20057;-68
2024/01/10 12:11:44;;;;;;;0.20;0.20;;;2.20;99.90;;;;;;4958789;28;20138;-68
2024/01/10 12:14:10;;;;;;;0.45;0.45;;;2.40;99.90;;;;;;4961373;28;20047;-67
2024/01/10 12:16:35;;;;;;;0.20;0.20;;;2.50;99.90;;;;;;4966048;28;20058;-68
2024/01/10 12:19:01;;;;;;;0.10;0.10;;;2.60;99.90;;;;;;4957206;28;20031;-68
2024/01/10 12:21:27;;;;;;;0.30;0.30;;;2.70;99.90;;;;;;4967020;28;20051;-68
2024/01/10 12:23:52;;;;;;;0.40;0.40;;;2.80;99.90;;;;;;4967088;28;20054;-68
2024/01/10 12:26:19;;;;;;;0.85;0.85;;;2.90;99.90;;;;;;4955911;28;20081;-68
2024/01/10 12:28:58;;;;;;;0.40;0.40;;;2.90;99.90;;;;;;4958799;28;20082;-68
2024/01/10 12:31:27;;;;;;;0.85;0.68;;;3.10;99.90;;;;;;4965206;28;20050;-68
2024/01/10 12:33:54;;;;;;;0.20;0.20;;;3.00;99.90;;;;;;4955093;28;20373;-68
2024/01/10 12:36:20;;;;;;;1.40;1.30;;;3.20;99.90;;;;;;4964376;28;20035;-68
2024/01/10 12:38:46;;;;;;;0.98;0.98;;;3.10;99.90;;;;;;4965038;28;20075;-68
2024/01/10 12:41:11;;;;;;;2.25;0.77;;;2.90;99.90;;;;;;4968489;28;20150;-68
2024/01/10 12:43:38;;;;;;;0.28;0.28;;;2.90;99.90;;;;;;4965163;28;20043;-68
2024/01/10 12:46:11;;;;;;;0.10;0.10;;;2.90;99.90;;;;;;4961720;28;20089;-68